sensor_id;sensor_type;location;lat;lon;timestamp;P1;durP1;ratioP1;P2;durP2;ratioP2
37781;SDS011;23621;50.878;4.584;2023-10-08T00:02:11;5.47;;;3.40;;
37781;SDS011;23621;50.878;4.584;2023-10-08T00:05:00;9.50;;;3.40;;
37781;SDS011;23621;50.878;4.584;2023-10-08T00:07:49;5.35;;;3.28;;
37781;SDS011;23621;50.878;4.584;2023-10-08T00:10:37;8.40;;;3.50;;
37781;SDS011;23621;50.878;4.584;2023-10-08T00:13:29;5.85;;;3.38;;
37781;SDS011;23621;50.878;4.584;2023-10-08T00:16:16;7.07;;;3.22;;
37781;SDS011;23621;50.878;4.584;2023-10-08T00:19:05;6.25;;;3.50;;
37781;SDS011;23621;50.878;4.584;2023-10-08T00:22:00;4.80;;;3.50;;
37781;SDS011;23621;50.878;4.584;2023-10-08T00:24:52;5.43;;;3.58;;
37781;SDS011;23621;50.878;4.584;2023-10-08T00:27:44;8.23;;;3.63;;
37781;SDS011;23621;50.878;4.584;2023-10-08T00:30:32;4.93;;;3.47;;
37781;SDS011;23621;50.878;4.584;2023-10-08T00:33:20;6.00;;;3.30;;
37781;SDS011;23621;50.878;4.584;2023-10-08T00:36:08;5.25;;;3.22;;
37781;SDS011;23621;50.878;4.584;2023-10-08T00:39:05;4.03;;;3.42;;
37781;SDS011;23621;50.878;4.584;2023-10-08T00:42:00;5.07;;;3.50;;
37781;SDS011;23621;50.878;4.584;2023-10-08T00:44:51;4.25;;;3.08;;
37781;SDS011;23621;50.878;4.584;2023-10-08T00:47:38;4.35;;;3.10;;
37781;SDS011;23621;50.878;4.584;2023-10-08T00:50:30;4.85;;;3.38;;
37781;SDS011;23621;50.878;4.584;2023-10-08T00:53:29;5.80;;;3.58;;
37781;SDS011;23621;50.878;4.584;2023-10-08T00:56:16;5.25;;;3.67;;
37781;SDS011;23621;50.878;4.584;2023-10-08T00:59:06;4.20;;;2.83;;
37781;SDS011;23621;50.878;4.584;2023-10-08T01:01:53;5.35;;;3.58;;
37781;SDS011;23621;50.878;4.584;2023-10-08T01:04:46;6.28;;;3.72;;
37781;SDS011;23621;50.878;4.584;2023-10-08T01:07:33;4.63;;;3.20;;
37781;SDS011;23621;50.878;4.584;2023-10-08T01:10:22;5.40;;;3.67;;
37781;SDS011;23621;50.878;4.584;2023-10-08T01:13:11;7.50;;;3.60;;
37781;SDS011;23621;50.878;4.584;2023-10-08T01:16:03;6.40;;;3.20;;
37781;SDS011;23621;50.878;4.584;2023-10-08T01:18:50;5.45;;;3.25;;
37781;SDS011;23621;50.878;4.584;2023-10-08T01:21:41;6.47;;;3.65;;
37781;SDS011;23621;50.878;4.584;2023-10-08T01:24:28;5.07;;;3.65;;
37781;SDS011;23621;50.878;4.584;2023-10-08T01:27:21;5.85;;;3.22;;
37781;SDS011;23621;50.878;4.584;2023-10-08T01:30:10;7.00;;;3.80;;
37781;SDS011;23621;50.878;4.584;2023-10-08T01:33:05;6.97;;;3.40;;
37781;SDS011;23621;50.878;4.584;2023-10-08T01:35:54;4.18;;;3.53;;
37781;SDS011;23621;50.878;4.584;2023-10-08T01:38:48;5.28;;;3.65;;
37781;SDS011;23621;50.878;4.584;2023-10-08T01:41:36;5.57;;;2.97;;
37781;SDS011;23621;50.878;4.584;2023-10-08T01:44:27;7.90;;;3.72;;
37781;SDS011;23621;50.878;4.584;2023-10-08T01:47:16;6.53;;;3.72;;
37781;SDS011;23621;50.878;4.584;2023-10-08T01:50:04;8.00;;;3.72;;
37781;SDS011;23621;50.878;4.584;2023-10-08T01:52:53;5.55;;;3.80;;
37781;SDS011;23621;50.878;4.584;2023-10-08T01:55:40;5.72;;;3.53;;
37781;SDS011;23621;50.878;4.584;2023-10-08T01:58:38;6.97;;;3.95;;
37781;SDS011;23621;50.878;4.584;2023-10-08T02:01:25;9.35;;;3.97;;
37781;SDS011;23621;50.878;4.584;2023-10-08T02:04:12;6.30;;;4.10;;
37781;SDS011;23621;50.878;4.584;2023-10-08T02:07:03;6.13;;;3.45;;
37781;SDS011;23621;50.878;4.584;2023-10-08T02:09:54;5.28;;;3.63;;
37781;SDS011;23621;50.878;4.584;2023-10-08T02:12:42;5.35;;;3.60;;
37781;SDS011;23621;50.878;4.584;2023-10-08T02:15:29;5.10;;;3.75;;
37781;SDS011;23621;50.878;4.584;2023-10-08T02:18:16;4.93;;;3.47;;
37781;SDS011;23621;50.878;4.584;2023-10-08T02:21:04;6.95;;;3.78;;
37781;SDS011;23621;50.878;4.584;2023-10-08T02:23:52;4.63;;;3.40;;
37781;SDS011;23621;50.878;4.584;2023-10-08T02:26:39;5.95;;;3.42;;
37781;SDS011;23621;50.878;4.584;2023-10-08T02:29:28;7.75;;;3.72;;
37781;SDS011;23621;50.878;4.584;2023-10-08T02:32:16;4.50;;;3.40;;
37781;SDS011;23621;50.878;4.584;2023-10-08T02:35:05;5.07;;;3.42;;
37781;SDS011;23621;50.878;4.584;2023-10-08T02:37:53;6.25;;;3.88;;
37781;SDS011;23621;50.878;4.584;2023-10-08T02:40:41;6.00;;;3.63;;
37781;SDS011;23621;50.878;4.584;2023-10-08T02:43:33;5.63;;;3.67;;
37781;SDS011;23621;50.878;4.584;2023-10-08T02:46:23;5.80;;;3.58;;
37781;SDS011;23621;50.878;4.584;2023-10-08T02:49:17;7.78;;;3.72;;
37781;SDS011;23621;50.878;4.584;2023-10-08T02:52:12;8.52;;;3.80;;
37781;SDS011;23621;50.878;4.584;2023-10-08T02:54:59;5.85;;;4.00;;
37781;SDS011;23621;50.878;4.584;2023-10-08T02:57:47;6.05;;;3.80;;
37781;SDS011;23621;50.878;4.584;2023-10-08T03:00:37;6.68;;;4.00;;
37781;SDS011;23621;50.878;4.584;2023-10-08T03:03:27;5.75;;;3.50;;
37781;SDS011;23621;50.878;4.584;2023-10-08T03:06:15;6.18;;;3.40;;
37781;SDS011;23621;50.878;4.584;2023-10-08T03:09:04;5.85;;;3.50;;
37781;SDS011;23621;50.878;4.584;2023-10-08T03:11:52;5.50;;;4.00;;
37781;SDS011;23621;50.878;4.584;2023-10-08T03:14:40;6.88;;;3.70;;
37781;SDS011;23621;50.878;4.584;2023-10-08T03:17:47;5.93;;;3.63;;
37781;SDS011;23621;50.878;4.584;2023-10-08T03:20:38;7.32;;;4.18;;
37781;SDS011;23621;50.878;4.584;2023-10-08T03:23:25;6.55;;;3.75;;
37781;SDS011;23621;50.878;4.584;2023-10-08T03:26:21;6.10;;;3.80;;
37781;SDS011;23621;50.878;4.584;2023-10-08T03:29:17;4.78;;;3.30;;
37781;SDS011;23621;50.878;4.584;2023-10-08T03:32:06;6.35;;;3.80;;
37781;SDS011;23621;50.878;4.584;2023-10-08T03:35:04;7.93;;;4.10;;
37781;SDS011;23621;50.878;4.584;2023-10-08T03:37:57;6.13;;;3.63;;
37781;SDS011;23621;50.878;4.584;2023-10-08T03:41:04;4.97;;;3.83;;
37781;SDS011;23621;50.878;4.584;2023-10-08T03:43:53;5.93;;;3.90;;
37781;SDS011;23621;50.878;4.584;2023-10-08T03:46:59;5.20;;;3.88;;
37781;SDS011;23621;50.878;4.584;2023-10-08T03:49:46;5.70;;;3.97;;
37781;SDS011;23621;50.878;4.584;2023-10-08T03:52:37;7.65;;;4.35;;
37781;SDS011;23621;50.878;4.584;2023-10-08T03:55:25;6.00;;;3.90;;
37781;SDS011;23621;50.878;4.584;2023-10-08T03:58:13;6.20;;;3.45;;
37781;SDS011;23621;50.878;4.584;2023-10-08T04:01:15;6.28;;;3.83;;
37781;SDS011;23621;50.878;4.584;2023-10-08T04:04:06;5.30;;;3.90;;
37781;SDS011;23621;50.878;4.584;2023-10-08T04:06:58;5.35;;;3.55;;
37781;SDS011;23621;50.878;4.584;2023-10-08T04:10:06;5.45;;;3.88;;
37781;SDS011;23621;50.878;4.584;2023-10-08T04:12:56;6.47;;;3.95;;
37781;SDS011;23621;50.878;4.584;2023-10-08T04:15:43;7.13;;;4.20;;
37781;SDS011;23621;50.878;4.584;2023-10-08T04:18:31;5.50;;;3.70;;
37781;SDS011;23621;50.878;4.584;2023-10-08T04:21:19;5.00;;;3.92;;
37781;SDS011;23621;50.878;4.584;2023-10-08T04:24:07;7.63;;;3.58;;
37781;SDS011;23621;50.878;4.584;2023-10-08T04:26:58;6.80;;;4.10;;
37781;SDS011;23621;50.878;4.584;2023-10-08T04:29:45;6.25;;;3.75;;
37781;SDS011;23621;50.878;4.584;2023-10-08T04:32:36;7.57;;;3.75;;
37781;SDS011;23621;50.878;4.584;2023-10-08T04:35:24;6.78;;;3.90;;
37781;SDS011;23621;50.878;4.584;2023-10-08T04:38:17;8.15;;;4.13;;
37781;SDS011;23621;50.878;4.584;2023-10-08T04:41:08;5.97;;;4.10;;
37781;SDS011;23621;50.878;4.584;2023-10-08T04:43:55;6.38;;;3.90;;
37781;SDS011;23621;50.878;4.584;2023-10-08T04:46:43;5.82;;;3.40;;
37781;SDS011;23621;50.878;4.584;2023-10-08T04:49:34;5.63;;;3.72;;
37781;SDS011;23621;50.878;4.584;2023-10-08T04:52:24;5.70;;;3.65;;
37781;SDS011;23621;50.878;4.584;2023-10-08T04:55:14;7.43;;;4.03;;
37781;SDS011;23621;50.878;4.584;2023-10-08T04:58:07;7.00;;;4.10;;
37781;SDS011;23621;50.878;4.584;2023-10-08T05:01:07;5.35;;;3.92;;
37781;SDS011;23621;50.878;4.584;2023-10-08T05:04:05;7.85;;;3.75;;
37781;SDS011;23621;50.878;4.584;2023-10-08T05:06:52;5.75;;;4.30;;
37781;SDS011;23621;50.878;4.584;2023-10-08T05:10:04;6.32;;;4.40;;
37781;SDS011;23621;50.878;4.584;2023-10-08T05:12:54;5.88;;;3.92;;
37781;SDS011;23621;50.878;4.584;2023-10-08T05:15:52;6.47;;;4.28;;
37781;SDS011;23621;50.878;4.584;2023-10-08T05:18:59;5.85;;;3.88;;
37781;SDS011;23621;50.878;4.584;2023-10-08T05:22:05;6.68;;;4.28;;
37781;SDS011;23621;50.878;4.584;2023-10-08T05:25:05;6.72;;;4.30;;
37781;SDS011;23621;50.878;4.584;2023-10-08T05:28:01;6.07;;;3.95;;
37781;SDS011;23621;50.878;4.584;2023-10-08T05:30:56;6.15;;;4.07;;
37781;SDS011;23621;50.878;4.584;2023-10-08T05:34:02;6.13;;;4.32;;
37781;SDS011;23621;50.878;4.584;2023-10-08T05:36:49;6.75;;;4.30;;
37781;SDS011;23621;50.878;4.584;2023-10-08T05:39:47;6.65;;;4.20;;
37781;SDS011;23621;50.878;4.584;2023-10-08T05:42:42;6.13;;;4.05;;
37781;SDS011;23621;50.878;4.584;2023-10-08T05:45:33;5.80;;;4.20;;
37781;SDS011;23621;50.878;4.584;2023-10-08T05:48:22;6.05;;;4.00;;
37781;SDS011;23621;50.878;4.584;2023-10-08T05:51:14;6.40;;;4.03;;
37781;SDS011;23621;50.878;4.584;2023-10-08T05:54:22;8.23;;;4.07;;
37781;SDS011;23621;50.878;4.584;2023-10-08T05:57:16;5.80;;;4.13;;
37781;SDS011;23621;50.878;4.584;2023-10-08T06:00:22;5.65;;;4.07;;
37781;SDS011;23621;50.878;4.584;2023-10-08T06:03:21;6.35;;;4.03;;
37781;SDS011;23621;50.878;4.584;2023-10-08T06:06:34;5.43;;;4.07;;
37781;SDS011;23621;50.878;4.584;2023-10-08T06:09:34;6.53;;;4.35;;
37781;SDS011;23621;50.878;4.584;2023-10-08T06:12:26;5.13;;;4.30;;
37781;SDS011;23621;50.878;4.584;2023-10-08T06:15:17;5.75;;;4.10;;
37781;SDS011;23621;50.878;4.584;2023-10-08T06:18:21;6.38;;;4.40;;
37781;SDS011;23621;50.878;4.584;2023-10-08T06:21:13;7.57;;;4.43;;
37781;SDS011;23621;50.878;4.584;2023-10-08T06:24:02;6.30;;;4.60;;
37781;SDS011;23621;50.878;4.584;2023-10-08T06:26:55;7.38;;;4.10;;
37781;SDS011;23621;50.878;4.584;2023-10-08T06:29:42;5.63;;;4.28;;
37781;SDS011;23621;50.878;4.584;2023-10-08T06:32:31;7.47;;;4.45;;
37781;SDS011;23621;50.878;4.584;2023-10-08T06:35:18;7.40;;;4.68;;
37781;SDS011;23621;50.878;4.584;2023-10-08T06:38:08;7.28;;;4.57;;
37781;SDS011;23621;50.878;4.584;2023-10-08T06:40:58;7.13;;;4.43;;
37781;SDS011;23621;50.878;4.584;2023-10-08T06:43:57;5.00;;;4.15;;
37781;SDS011;23621;50.878;4.584;2023-10-08T06:46:52;7.80;;;4.53;;
37781;SDS011;23621;50.878;4.584;2023-10-08T06:49:42;6.70;;;4.13;;
37781;SDS011;23621;50.878;4.584;2023-10-08T06:52:30;6.28;;;4.05;;
37781;SDS011;23621;50.878;4.584;2023-10-08T06:55:17;6.88;;;4.72;;
37781;SDS011;23621;50.878;4.584;2023-10-08T06:58:05;8.32;;;4.72;;
37781;SDS011;23621;50.878;4.584;2023-10-08T07:00:52;6.20;;;4.10;;
37781;SDS011;23621;50.878;4.584;2023-10-08T07:03:41;8.43;;;4.60;;
37781;SDS011;23621;50.878;4.584;2023-10-08T07:06:29;8.60;;;4.60;;
37781;SDS011;23621;50.878;4.584;2023-10-08T07:09:20;10.32;;;4.93;;
37781;SDS011;23621;50.878;4.584;2023-10-08T07:12:13;5.70;;;4.03;;
37781;SDS011;23621;50.878;4.584;2023-10-08T07:15:01;7.03;;;4.47;;
37781;SDS011;23621;50.878;4.584;2023-10-08T07:17:50;6.88;;;4.35;;
37781;SDS011;23621;50.878;4.584;2023-10-08T07:20:44;6.28;;;4.32;;
37781;SDS011;23621;50.878;4.584;2023-10-08T07:23:32;6.97;;;3.90;;
37781;SDS011;23621;50.878;4.584;2023-10-08T07:26:27;6.78;;;4.75;;
37781;SDS011;23621;50.878;4.584;2023-10-08T07:29:25;6.25;;;4.45;;
37781;SDS011;23621;50.878;4.584;2023-10-08T07:32:12;8.77;;;5.07;;
37781;SDS011;23621;50.878;4.584;2023-10-08T07:35:05;7.97;;;4.72;;
37781;SDS011;23621;50.878;4.584;2023-10-08T07:38:10;7.45;;;4.80;;
37781;SDS011;23621;50.878;4.584;2023-10-08T07:40:58;5.93;;;4.30;;
37781;SDS011;23621;50.878;4.584;2023-10-08T07:43:47;8.48;;;5.22;;
37781;SDS011;23621;50.878;4.584;2023-10-08T07:46:45;7.05;;;4.70;;
37781;SDS011;23621;50.878;4.584;2023-10-08T07:49:32;7.10;;;4.22;;
37781;SDS011;23621;50.878;4.584;2023-10-08T07:52:20;9.30;;;5.03;;
37781;SDS011;23621;50.878;4.584;2023-10-08T07:55:07;7.18;;;4.53;;
37781;SDS011;23621;50.878;4.584;2023-10-08T07:57:55;6.28;;;4.30;;
37781;SDS011;23621;50.878;4.584;2023-10-08T08:00:42;9.75;;;4.88;;
37781;SDS011;23621;50.878;4.584;2023-10-08T08:03:38;6.90;;;4.40;;
37781;SDS011;23621;50.878;4.584;2023-10-08T08:06:26;8.73;;;5.47;;
37781;SDS011;23621;50.878;4.584;2023-10-08T08:09:14;9.10;;;4.97;;
37781;SDS011;23621;50.878;4.584;2023-10-08T08:12:06;8.82;;;5.47;;
37781;SDS011;23621;50.878;4.584;2023-10-08T08:14:58;9.65;;;5.13;;
37781;SDS011;23621;50.878;4.584;2023-10-08T08:17:45;7.57;;;4.72;;
37781;SDS011;23621;50.878;4.584;2023-10-08T08:20:35;8.85;;;5.03;;
37781;SDS011;23621;50.878;4.584;2023-10-08T08:23:25;8.60;;;5.55;;
37781;SDS011;23621;50.878;4.584;2023-10-08T08:26:16;8.30;;;5.43;;
37781;SDS011;23621;50.878;4.584;2023-10-08T08:29:15;9.45;;;5.32;;
37781;SDS011;23621;50.878;4.584;2023-10-08T08:32:02;9.63;;;5.07;;
37781;SDS011;23621;50.878;4.584;2023-10-08T08:34:51;9.63;;;5.78;;
37781;SDS011;23621;50.878;4.584;2023-10-08T08:37:39;7.97;;;5.07;;
37781;SDS011;23621;50.878;4.584;2023-10-08T08:40:27;9.77;;;5.05;;
37781;SDS011;23621;50.878;4.584;2023-10-08T08:43:14;9.68;;;5.25;;
37781;SDS011;23621;50.878;4.584;2023-10-08T08:46:03;10.90;;;5.45;;
37781;SDS011;23621;50.878;4.584;2023-10-08T08:48:57;6.80;;;5.10;;
37781;SDS011;23621;50.878;4.584;2023-10-08T08:51:51;6.68;;;5.00;;
37781;SDS011;23621;50.878;4.584;2023-10-08T08:54:42;9.52;;;5.55;;
37781;SDS011;23621;50.878;4.584;2023-10-08T08:57:29;9.70;;;5.35;;
37781;SDS011;23621;50.878;4.584;2023-10-08T09:00:17;9.50;;;4.75;;
37781;SDS011;23621;50.878;4.584;2023-10-08T09:03:07;14.05;;;5.32;;
37781;SDS011;23621;50.878;4.584;2023-10-08T09:05:55;9.35;;;5.40;;
37781;SDS011;23621;50.878;4.584;2023-10-08T09:08:43;11.68;;;6.07;;
37781;SDS011;23621;50.878;4.584;2023-10-08T09:11:32;10.45;;;6.18;;
37781;SDS011;23621;50.878;4.584;2023-10-08T09:14:22;7.30;;;5.20;;
37781;SDS011;23621;50.878;4.584;2023-10-08T09:17:12;10.68;;;5.60;;
37781;SDS011;23621;50.878;4.584;2023-10-08T09:20:02;11.65;;;5.90;;
37781;SDS011;23621;50.878;4.584;2023-10-08T09:25:58;10.90;;;6.28;;
37781;SDS011;23621;50.878;4.584;2023-10-08T09:28:49;11.73;;;6.78;;
37781;SDS011;23621;50.878;4.584;2023-10-08T09:31:38;12.05;;;6.25;;
37781;SDS011;23621;50.878;4.584;2023-10-08T09:34:26;12.95;;;5.95;;
37781;SDS011;23621;50.878;4.584;2023-10-08T09:37:16;12.00;;;6.53;;
37781;SDS011;23621;50.878;4.584;2023-10-08T09:40:07;9.30;;;5.68;;
37781;SDS011;23621;50.878;4.584;2023-10-08T09:42:58;16.40;;;6.20;;
37781;SDS011;23621;50.878;4.584;2023-10-08T09:45:47;10.30;;;6.30;;
37781;SDS011;23621;50.878;4.584;2023-10-08T09:48:45;7.80;;;6.18;;
37781;SDS011;23621;50.878;4.584;2023-10-08T09:51:40;8.75;;;5.68;;
37781;SDS011;23621;50.878;4.584;2023-10-08T09:54:28;8.65;;;5.65;;
37781;SDS011;23621;50.878;4.584;2023-10-08T09:57:24;8.50;;;5.88;;
37781;SDS011;23621;50.878;4.584;2023-10-08T10:00:13;12.73;;;6.38;;
37781;SDS011;23621;50.878;4.584;2023-10-08T10:03:02;12.43;;;5.90;;
37781;SDS011;23621;50.878;4.584;2023-10-08T10:05:50;9.50;;;5.82;;
37781;SDS011;23621;50.878;4.584;2023-10-08T10:08:38;14.07;;;6.18;;
37781;SDS011;23621;50.878;4.584;2023-10-08T10:11:26;10.10;;;6.28;;
37781;SDS011;23621;50.878;4.584;2023-10-08T10:14:15;11.75;;;6.32;;
37781;SDS011;23621;50.878;4.584;2023-10-08T10:17:08;8.73;;;5.63;;
37781;SDS011;23621;50.878;4.584;2023-10-08T10:20:27;10.85;;;6.38;;
37781;SDS011;23621;50.878;4.584;2023-10-08T10:26:31;12.65;;;6.13;;
37781;SDS011;23621;50.878;4.584;2023-10-08T10:29:20;13.27;;;6.43;;
37781;SDS011;23621;50.878;4.584;2023-10-08T10:32:12;14.20;;;6.30;;
37781;SDS011;23621;50.878;4.584;2023-10-08T10:35:01;10.93;;;6.28;;
37781;SDS011;23621;50.878;4.584;2023-10-08T10:37:52;11.23;;;5.72;;
37781;SDS011;23621;50.878;4.584;2023-10-08T10:40:41;11.40;;;5.18;;
37781;SDS011;23621;50.878;4.584;2023-10-08T10:43:29;10.40;;;5.53;;
37781;SDS011;23621;50.878;4.584;2023-10-08T10:46:19;13.82;;;5.97;;
37781;SDS011;23621;50.878;4.584;2023-10-08T10:49:16;9.10;;;5.80;;
37781;SDS011;23621;50.878;4.584;2023-10-08T10:52:05;12.30;;;5.57;;
37781;SDS011;23621;50.878;4.584;2023-10-08T10:54:53;10.98;;;5.75;;
37781;SDS011;23621;50.878;4.584;2023-10-08T10:57:52;11.30;;;6.38;;
37781;SDS011;23621;50.878;4.584;2023-10-08T11:01:01;9.88;;;5.90;;
37781;SDS011;23621;50.878;4.584;2023-10-08T11:03:55;9.10;;;5.95;;
37781;SDS011;23621;50.878;4.584;2023-10-08T11:06:47;12.70;;;6.50;;
37781;SDS011;23621;50.878;4.584;2023-10-08T11:09:37;10.57;;;6.20;;
37781;SDS011;23621;50.878;4.584;2023-10-08T11:12:25;9.95;;;5.63;;
37781;SDS011;23621;50.878;4.584;2023-10-08T11:15:30;11.32;;;6.05;;
37781;SDS011;23621;50.878;4.584;2023-10-08T11:18:26;10.38;;;6.00;;
37781;SDS011;23621;50.878;4.584;2023-10-08T11:21:15;13.43;;;6.65;;
37781;SDS011;23621;50.878;4.584;2023-10-08T11:24:03;11.55;;;6.72;;
37781;SDS011;23621;50.878;4.584;2023-10-08T11:27:00;11.27;;;5.82;;
37781;SDS011;23621;50.878;4.584;2023-10-08T11:30:03;11.57;;;6.63;;
37781;SDS011;23621;50.878;4.584;2023-10-08T11:32:58;10.55;;;6.43;;
37781;SDS011;23621;50.878;4.584;2023-10-08T11:36:02;8.60;;;5.80;;
37781;SDS011;23621;50.878;4.584;2023-10-08T11:38:54;11.33;;;6.63;;
37781;SDS011;23621;50.878;4.584;2023-10-08T11:41:57;11.32;;;6.00;;
37781;SDS011;23621;50.878;4.584;2023-10-08T11:44:53;9.85;;;5.72;;
37781;SDS011;23621;50.878;4.584;2023-10-08T11:47:42;12.88;;;6.00;;
37781;SDS011;23621;50.878;4.584;2023-10-08T11:50:31;8.68;;;5.72;;
37781;SDS011;23621;50.878;4.584;2023-10-08T11:53:21;8.98;;;5.82;;
37781;SDS011;23621;50.878;4.584;2023-10-08T11:56:09;9.15;;;5.50;;
37781;SDS011;23621;50.878;4.584;2023-10-08T11:59:02;13.30;;;5.60;;
37781;SDS011;23621;50.878;4.584;2023-10-08T12:01:55;11.65;;;6.03;;
37781;SDS011;23621;50.878;4.584;2023-10-08T12:04:43;10.27;;;6.03;;
37781;SDS011;23621;50.878;4.584;2023-10-08T12:07:35;11.73;;;6.10;;
37781;SDS011;23621;50.878;4.584;2023-10-08T12:10:25;10.95;;;5.43;;
37781;SDS011;23621;50.878;4.584;2023-10-08T12:13:12;9.57;;;6.10;;
37781;SDS011;23621;50.878;4.584;2023-10-08T12:15:59;8.13;;;5.50;;
37781;SDS011;23621;50.878;4.584;2023-10-08T12:18:53;13.45;;;6.28;;
37781;SDS011;23621;50.878;4.584;2023-10-08T12:21:46;10.27;;;5.70;;
37781;SDS011;23621;50.878;4.584;2023-10-08T12:24:34;9.20;;;5.53;;
37781;SDS011;23621;50.878;4.584;2023-10-08T12:27:22;9.93;;;5.65;;
37781;SDS011;23621;50.878;4.584;2023-10-08T12:30:11;8.60;;;5.65;;
37781;SDS011;23621;50.878;4.584;2023-10-08T12:32:59;12.02;;;6.15;;
37781;SDS011;23621;50.878;4.584;2023-10-08T12:35:47;9.85;;;5.93;;
37781;SDS011;23621;50.878;4.584;2023-10-08T12:38:35;13.23;;;6.57;;
37781;SDS011;23621;50.878;4.584;2023-10-08T12:41:25;10.52;;;5.45;;
37781;SDS011;23621;50.878;4.584;2023-10-08T12:44:18;10.90;;;5.90;;
37781;SDS011;23621;50.878;4.584;2023-10-08T12:47:08;8.90;;;6.15;;
37781;SDS011;23621;50.878;4.584;2023-10-08T12:49:55;9.93;;;6.15;;
37781;SDS011;23621;50.878;4.584;2023-10-08T12:52:44;9.43;;;5.80;;
37781;SDS011;23621;50.878;4.584;2023-10-08T12:55:40;10.55;;;5.82;;
37781;SDS011;23621;50.878;4.584;2023-10-08T12:58:27;11.50;;;5.45;;
37781;SDS011;23621;50.878;4.584;2023-10-08T13:01:16;10.52;;;5.78;;
37781;SDS011;23621;50.878;4.584;2023-10-08T13:04:04;8.80;;;5.78;;
37781;SDS011;23621;50.878;4.584;2023-10-08T13:07:00;9.35;;;6.20;;
37781;SDS011;23621;50.878;4.584;2023-10-08T13:09:49;9.63;;;5.65;;
37781;SDS011;23621;50.878;4.584;2023-10-08T13:12:36;10.95;;;6.25;;
37781;SDS011;23621;50.878;4.584;2023-10-08T13:15:24;11.48;;;5.75;;
37781;SDS011;23621;50.878;4.584;2023-10-08T13:18:12;9.75;;;5.90;;
37781;SDS011;23621;50.878;4.584;2023-10-08T13:21:00;10.70;;;6.00;;
37781;SDS011;23621;50.878;4.584;2023-10-08T13:23:48;7.30;;;5.28;;
37781;SDS011;23621;50.878;4.584;2023-10-08T13:26:36;10.63;;;6.00;;
37781;SDS011;23621;50.878;4.584;2023-10-08T13:29:25;8.35;;;5.50;;
37781;SDS011;23621;50.878;4.584;2023-10-08T13:32:13;8.85;;;5.72;;
37781;SDS011;23621;50.878;4.584;2023-10-08T13:35:04;9.57;;;5.97;;
37781;SDS011;23621;50.878;4.584;2023-10-08T13:37:54;9.35;;;5.80;;
37781;SDS011;23621;50.878;4.584;2023-10-08T13:40:42;8.63;;;6.20;;
37781;SDS011;23621;50.878;4.584;2023-10-08T13:43:49;9.48;;;6.15;;
37781;SDS011;23621;50.878;4.584;2023-10-08T13:46:38;10.07;;;6.53;;
37781;SDS011;23621;50.878;4.584;2023-10-08T13:49:29;9.25;;;6.18;;
37781;SDS011;23621;50.878;4.584;2023-10-08T13:52:17;10.65;;;5.75;;
37781;SDS011;23621;50.878;4.584;2023-10-08T13:55:05;10.85;;;6.05;;
37781;SDS011;23621;50.878;4.584;2023-10-08T13:57:54;10.15;;;6.28;;
37781;SDS011;23621;50.878;4.584;2023-10-08T14:00:41;11.68;;;5.95;;
37781;SDS011;23621;50.878;4.584;2023-10-08T14:03:29;9.80;;;6.28;;
37781;SDS011;23621;50.878;4.584;2023-10-08T14:06:19;11.35;;;6.55;;
37781;SDS011;23621;50.878;4.584;2023-10-08T14:09:08;8.85;;;6.07;;
37781;SDS011;23621;50.878;4.584;2023-10-08T14:11:58;9.25;;;6.20;;
37781;SDS011;23621;50.878;4.584;2023-10-08T14:14:47;9.23;;;5.63;;
37781;SDS011;23621;50.878;4.584;2023-10-08T14:17:35;10.27;;;5.68;;
37781;SDS011;23621;50.878;4.584;2023-10-08T14:20:29;10.20;;;6.00;;
37781;SDS011;23621;50.878;4.584;2023-10-08T14:23:18;8.55;;;5.78;;
37781;SDS011;23621;50.878;4.584;2023-10-08T14:26:09;8.57;;;5.82;;
37781;SDS011;23621;50.878;4.584;2023-10-08T14:28:57;9.98;;;5.75;;
37781;SDS011;23621;50.878;4.584;2023-10-08T14:31:45;8.80;;;6.00;;
37781;SDS011;23621;50.878;4.584;2023-10-08T14:34:35;10.05;;;5.80;;
37781;SDS011;23621;50.878;4.584;2023-10-08T14:37:41;9.02;;;5.88;;
37781;SDS011;23621;50.878;4.584;2023-10-08T14:40:47;9.15;;;6.68;;
37781;SDS011;23621;50.878;4.584;2023-10-08T14:44:09;7.55;;;5.57;;
37781;SDS011;23621;50.878;4.584;2023-10-08T14:46:58;10.35;;;5.63;;
37781;SDS011;23621;50.878;4.584;2023-10-08T14:49:45;10.95;;;5.97;;
37781;SDS011;23621;50.878;4.584;2023-10-08T14:52:32;7.25;;;5.57;;
37781;SDS011;23621;50.878;4.584;2023-10-08T14:55:22;8.93;;;5.65;;
37781;SDS011;23621;50.878;4.584;2023-10-08T14:58:10;9.80;;;6.32;;
37781;SDS011;23621;50.878;4.584;2023-10-08T15:00:57;10.05;;;5.80;;
37781;SDS011;23621;50.878;4.584;2023-10-08T15:03:45;8.25;;;5.63;;
37781;SDS011;23621;50.878;4.584;2023-10-08T15:06:33;7.85;;;5.70;;
37781;SDS011;23621;50.878;4.584;2023-10-08T15:09:21;8.73;;;6.05;;
37781;SDS011;23621;50.878;4.584;2023-10-08T15:12:10;9.05;;;6.25;;
37781;SDS011;23621;50.878;4.584;2023-10-08T15:14:57;8.20;;;5.97;;
37781;SDS011;23621;50.878;4.584;2023-10-08T15:17:45;10.35;;;5.55;;
37781;SDS011;23621;50.878;4.584;2023-10-08T15:20:33;9.93;;;5.97;;
37781;SDS011;23621;50.878;4.584;2023-10-08T15:23:21;9.23;;;5.70;;
37781;SDS011;23621;50.878;4.584;2023-10-08T15:26:12;10.38;;;5.80;;
37781;SDS011;23621;50.878;4.584;2023-10-08T15:28:59;8.70;;;5.55;;
37781;SDS011;23621;50.878;4.584;2023-10-08T15:31:49;9.13;;;5.60;;
37781;SDS011;23621;50.878;4.584;2023-10-08T15:34:36;9.15;;;5.55;;
37781;SDS011;23621;50.878;4.584;2023-10-08T15:37:29;8.35;;;5.38;;
37781;SDS011;23621;50.878;4.584;2023-10-08T15:40:16;8.10;;;5.40;;
37781;SDS011;23621;50.878;4.584;2023-10-08T15:43:07;8.00;;;4.82;;
37781;SDS011;23621;50.878;4.584;2023-10-08T15:45:54;6.70;;;4.90;;
37781;SDS011;23621;50.878;4.584;2023-10-08T15:48:42;6.65;;;4.85;;
37781;SDS011;23621;50.878;4.584;2023-10-08T15:51:30;8.60;;;5.28;;
37781;SDS011;23621;50.878;4.584;2023-10-08T15:54:20;6.85;;;5.00;;
37781;SDS011;23621;50.878;4.584;2023-10-08T15:57:08;9.40;;;5.20;;
37781;SDS011;23621;50.878;4.584;2023-10-08T15:59:55;6.50;;;4.88;;
37781;SDS011;23621;50.878;4.584;2023-10-08T16:02:43;7.50;;;4.97;;
37781;SDS011;23621;50.878;4.584;2023-10-08T16:05:32;9.23;;;5.28;;
37781;SDS011;23621;50.878;4.584;2023-10-08T16:08:20;8.52;;;5.50;;
37781;SDS011;23621;50.878;4.584;2023-10-08T16:11:08;7.13;;;4.95;;
37781;SDS011;23621;50.878;4.584;2023-10-08T16:13:55;9.98;;;5.30;;
37781;SDS011;23621;50.878;4.584;2023-10-08T16:16:46;9.65;;;5.22;;
37781;SDS011;23621;50.878;4.584;2023-10-08T16:19:33;6.88;;;4.95;;
37781;SDS011;23621;50.878;4.584;2023-10-08T16:22:23;9.57;;;5.75;;
37781;SDS011;23621;50.878;4.584;2023-10-08T16:25:11;7.38;;;5.47;;
37781;SDS011;23621;50.878;4.584;2023-10-08T16:28:04;7.85;;;5.07;;
37781;SDS011;23621;50.878;4.584;2023-10-08T16:30:51;8.23;;;5.20;;
37781;SDS011;23621;50.878;4.584;2023-10-08T16:33:40;7.88;;;5.10;;
37781;SDS011;23621;50.878;4.584;2023-10-08T16:36:28;7.50;;;5.32;;
37781;SDS011;23621;50.878;4.584;2023-10-08T16:39:16;7.10;;;5.03;;
37781;SDS011;23621;50.878;4.584;2023-10-08T16:42:10;8.00;;;5.28;;
37781;SDS011;23621;50.878;4.584;2023-10-08T16:44:58;7.93;;;5.20;;
37781;SDS011;23621;50.878;4.584;2023-10-08T16:47:46;6.80;;;4.60;;
37781;SDS011;23621;50.878;4.584;2023-10-08T16:50:34;8.30;;;5.30;;
37781;SDS011;23621;50.878;4.584;2023-10-08T16:53:21;7.55;;;5.28;;
37781;SDS011;23621;50.878;4.584;2023-10-08T16:56:11;6.72;;;5.65;;
37781;SDS011;23621;50.878;4.584;2023-10-08T16:58:58;7.22;;;5.35;;
37781;SDS011;23621;50.878;4.584;2023-10-08T17:01:46;9.45;;;5.55;;
37781;SDS011;23621;50.878;4.584;2023-10-08T17:04:33;5.53;;;4.93;;
37781;SDS011;23621;50.878;4.584;2023-10-08T17:07:20;7.32;;;5.43;;
37781;SDS011;23621;50.878;4.584;2023-10-08T17:10:09;7.43;;;5.20;;
37781;SDS011;23621;50.878;4.584;2023-10-08T17:12:57;7.38;;;5.10;;
37781;SDS011;23621;50.878;4.584;2023-10-08T17:15:44;7.18;;;5.10;;